createdAt,value
2022-12-18T00:01:07.150Z,-3.90
2022-12-18T00:03:43.496Z,-3.80
2022-12-18T00:06:10.321Z,-3.90
2022-12-18T00:08:36.889Z,-4.00
2022-12-18T00:11:08.060Z,-4.10
2022-12-18T00:13:35.797Z,-4.10
2022-12-18T00:16:08.434Z,-4.40
2022-12-18T00:18:35.324Z,-4.50
2022-12-18T00:21:04.685Z,-4.50
2022-12-18T00:23:32.255Z,-4.50
2022-12-18T00:26:09.170Z,-4.60
2022-12-18T00:28:35.681Z,-4.70
2022-12-18T00:31:07.104Z,-4.60
2022-12-18T00:33:33.941Z,-4.50
2022-12-18T00:36:10.582Z,-4.30
2022-12-18T00:38:37.598Z,-4.50
2022-12-18T00:41:06.666Z,-4.70
2022-12-18T00:43:36.762Z,-4.80
2022-12-18T00:46:04.084Z,-4.70
2022-12-18T00:48:32.045Z,-4.70
2022-12-18T00:50:58.489Z,-4.90
2022-12-18T00:53:24.931Z,-4.90
2022-12-18T00:55:51.368Z,-4.90
2022-12-18T00:58:18.326Z,-4.70
2022-12-18T01:00:45.067Z,-4.80
2022-12-18T01:03:15.343Z,-4.60
2022-12-18T01:05:43.204Z,-4.60
2022-12-18T01:08:10.068Z,-4.50
2022-12-18T01:10:36.674Z,-4.60
2022-12-18T01:13:03.210Z,-4.50
2022-12-18T01:15:29.746Z,-4.40
2022-12-18T01:17:56.172Z,-4.30
2022-12-18T01:20:23.007Z,-4.30
2022-12-18T01:22:49.481Z,-4.30
2022-12-18T01:25:15.928Z,-4.60
2022-12-18T01:27:42.543Z,-4.70
2022-12-18T01:30:09.693Z,-4.70
2022-12-18T01:32:36.469Z,-5.00
2022-12-18T01:35:03.874Z,-4.80
2022-12-18T01:37:30.345Z,-4.90
2022-12-18T01:39:56.920Z,-5.00
2022-12-18T01:42:23.587Z,-5.00
2022-12-18T01:45:06.297Z,-5.10
2022-12-18T01:47:44.963Z,-5.20
2022-12-18T01:50:17.394Z,-5.00
2022-12-18T01:52:50.923Z,-5.10
2022-12-18T01:55:19.875Z,-5.00
2022-12-18T01:57:47.527Z,-5.00
2022-12-18T02:00:18.107Z,-5.00
2022-12-18T02:02:46.594Z,-4.70
2022-12-18T02:05:17.182Z,-4.60
2022-12-18T02:08:14.821Z,-4.60
2022-12-18T02:10:59.925Z,-4.70
2022-12-18T02:13:49.596Z,-4.60
2022-12-18T02:16:42.368Z,-4.70
2022-12-18T02:19:27.663Z,-4.70
2022-12-18T02:22:04.130Z,-4.60
2022-12-18T02:25:02.252Z,-4.60
2022-12-18T02:27:31.894Z,-4.70
2022-12-18T02:30:01.155Z,-4.90
2022-12-18T02:32:41.691Z,-5.00
2022-12-18T02:35:13.921Z,-5.10
2022-12-18T02:37:41.664Z,-5.00
2022-12-18T02:40:17.860Z,-5.00
2022-12-18T02:42:44.342Z,-5.20
2022-12-18T02:45:11.279Z,-5.30
2022-12-18T02:47:40.403Z,-5.40
2022-12-18T02:50:07.047Z,-5.30
2022-12-18T02:52:43.639Z,-5.10
2022-12-18T02:55:22.268Z,-5.20
2022-12-18T02:57:51.374Z,-5.00
2022-12-18T03:00:25.240Z,-5.00
2022-12-18T03:03:00.725Z,-5.10
2022-12-18T03:05:34.913Z,-4.90
2022-12-18T03:08:08.521Z,-4.90
2022-12-18T03:10:40.348Z,-5.10
2022-12-18T03:13:39.155Z,-5.10
2022-12-18T03:16:08.428Z,-5.20
2022-12-18T03:18:40.181Z,-5.40
2022-12-18T03:21:08.839Z,-5.20
2022-12-18T03:23:45.225Z,-5.30
2022-12-18T03:26:16.389Z,-5.30
2022-12-18T03:28:47.577Z,-5.20
2022-12-18T03:31:16.930Z,-5.10
2022-12-18T03:33:51.845Z,-4.90
2022-12-18T03:36:18.836Z,-5.10
2022-12-18T03:38:45.264Z,-5.10
2022-12-18T03:41:31.021Z,-5.10
2022-12-18T03:44:19.364Z,-5.20
2022-12-18T03:46:59.521Z,-5.10
2022-12-18T03:49:51.643Z,-5.40
2022-12-18T03:52:24.851Z,-5.50
2022-12-18T03:54:52.502Z,-5.50
2022-12-18T03:57:26.121Z,-5.40
2022-12-18T03:59:58.318Z,-5.40
2022-12-18T04:02:26.362Z,-5.40
2022-12-18T04:04:57.773Z,-5.50
2022-12-18T04:07:25.030Z,-5.40
2022-12-18T04:09:55.975Z,-5.50
2022-12-18T04:12:26.048Z,-5.40
2022-12-18T04:14:52.901Z,-5.30
2022-12-18T04:17:19.503Z,-5.30
2022-12-18T04:19:45.995Z,-5.30
2022-12-18T04:22:12.774Z,-5.50
2022-12-18T04:24:39.555Z,-5.40
2022-12-18T04:27:06.019Z,-5.40
2022-12-18T04:29:33.951Z,-5.40
2022-12-18T04:32:00.580Z,-5.50
2022-12-18T04:34:27.682Z,-5.40
2022-12-18T04:36:54.138Z,-5.50
2022-12-18T04:39:20.668Z,-5.60
2022-12-18T04:41:47.203Z,-5.70
2022-12-18T04:44:14.510Z,-5.60
2022-12-18T04:46:42.376Z,-5.60
2022-12-18T04:49:08.895Z,-5.70
2022-12-18T04:51:35.380Z,-5.50
2022-12-18T04:54:04.600Z,-5.60
2022-12-18T04:56:33.106Z,-5.60
2022-12-18T04:58:59.582Z,-5.70
2022-12-18T05:01:32.540Z,-5.60
2022-12-18T05:04:01.051Z,-5.50
2022-12-18T05:06:27.574Z,-5.30
2022-12-18T05:08:54.028Z,-5.40
2022-12-18T05:11:20.742Z,-5.70
2022-12-18T05:13:47.196Z,-5.70
2022-12-18T05:16:14.909Z,-5.50
2022-12-18T05:18:42.296Z,-5.40
2022-12-18T05:21:08.869Z,-5.40
2022-12-18T05:23:35.906Z,-5.50
2022-12-18T05:26:04.121Z,-5.40
2022-12-18T05:28:32.523Z,-5.40
2022-12-18T05:31:01.185Z,-5.40
2022-12-18T05:33:30.963Z,-5.40
2022-12-18T05:36:05.889Z,-5.50
2022-12-18T05:38:33.735Z,-5.40
2022-12-18T05:41:07.845Z,-5.40
2022-12-18T05:43:40.026Z,-5.40
2022-12-18T05:46:14.117Z,-5.20
2022-12-18T05:48:40.798Z,-5.30
2022-12-18T05:51:09.716Z,-5.30
2022-12-18T05:53:38.334Z,-5.20
2022-12-18T05:56:06.846Z,-5.20
2022-12-18T05:58:33.901Z,-5.20
2022-12-18T06:01:13.602Z,-5.10
2022-12-18T06:03:40.666Z,-5.10
2022-12-18T06:06:22.288Z,-5.20
2022-12-18T06:08:49.242Z,-5.10
2022-12-18T06:11:21.514Z,-5.40
2022-12-18T06:13:54.778Z,-5.60
2022-12-18T06:16:24.571Z,-5.50
2022-12-18T06:18:51.056Z,-5.50
2022-12-18T06:21:17.845Z,-5.40
2022-12-18T06:23:44.536Z,-5.50
2022-12-18T06:26:12.869Z,-5.50
2022-12-18T06:28:39.334Z,-5.50
2022-12-18T06:31:06.899Z,-5.50
2022-12-18T06:33:34.397Z,-5.60
2022-12-18T06:36:03.156Z,-5.60
2022-12-18T06:38:29.704Z,-5.50
2022-12-18T06:40:56.232Z,-5.50
2022-12-18T06:43:22.766Z,-5.60
2022-12-18T06:45:53.619Z,-5.60
2022-12-18T06:48:20.899Z,-5.60
2022-12-18T06:50:47.815Z,-5.70
2022-12-18T06:53:14.738Z,-5.50
2022-12-18T06:55:41.551Z,-5.30
2022-12-18T06:58:08.209Z,-5.20
2022-12-18T07:00:35.270Z,-5.20
2022-12-18T07:03:01.955Z,-5.20
2022-12-18T07:05:28.436Z,-5.40
2022-12-18T07:07:54.951Z,-5.30
2022-12-18T07:10:21.382Z,-5.30
2022-12-18T07:12:47.849Z,-5.40
2022-12-18T07:15:15.627Z,-5.40
2022-12-18T07:17:42.154Z,-5.50
2022-12-18T07:20:09.308Z,-5.60
2022-12-18T07:22:36.150Z,-5.50
2022-12-18T07:25:02.627Z,-5.40
2022-12-18T07:27:29.249Z,-5.40
2022-12-18T07:29:56.093Z,-5.30
2022-12-18T07:32:22.532Z,-5.20
2022-12-18T07:34:49.084Z,-5.20
2022-12-18T07:37:15.540Z,-5.20
2022-12-18T07:39:42.000Z,-5.20
2022-12-18T07:42:27.341Z,-5.30
2022-12-18T07:44:55.871Z,-5.30
2022-12-18T07:47:22.975Z,-5.40
2022-12-18T07:49:50.899Z,-5.30
2022-12-18T07:52:20.329Z,-5.30
2022-12-18T07:54:50.975Z,-5.40
2022-12-18T07:57:41.699Z,-5.50
2022-12-18T08:00:05.314Z,-5.30
2022-12-18T08:02:32.945Z,-5.30
2022-12-18T08:04:59.569Z,-5.30
2022-12-18T08:07:26.125Z,-5.40
2022-12-18T08:09:52.571Z,-5.50
2022-12-18T08:12:19.063Z,-5.60
2022-12-18T08:14:45.836Z,-5.40
2022-12-18T08:17:12.578Z,-5.50
2022-12-18T08:19:39.029Z,-5.40
2022-12-18T08:22:05.701Z,-5.40
2022-12-18T08:24:43.771Z,-5.40
2022-12-18T08:27:28.365Z,-5.40
2022-12-18T08:29:56.356Z,-5.50
2022-12-18T08:32:22.978Z,-5.40
2022-12-18T08:34:49.471Z,-5.30
2022-12-18T08:37:15.912Z,-5.20
2022-12-18T08:39:42.519Z,-5.30
2022-12-18T08:42:30.166Z,-5.10
2022-12-18T08:44:56.628Z,-4.90
2022-12-18T08:47:24.661Z,-4.90
2022-12-18T08:49:51.346Z,-4.90
2022-12-18T08:52:17.931Z,-4.90
2022-12-18T08:54:44.438Z,-4.90
2022-12-18T08:57:11.357Z,-4.90
2022-12-18T08:59:37.888Z,-4.70
2022-12-18T09:02:04.478Z,-4.70
2022-12-18T09:04:34.272Z,-4.70
2022-12-18T09:07:01.245Z,-4.70
2022-12-18T09:09:27.851Z,-4.80
2022-12-18T09:11:54.351Z,-4.90
2022-12-18T09:14:20.804Z,-5.00
2022-12-18T09:16:47.275Z,-5.00
2022-12-18T09:19:13.935Z,-5.00
2022-12-18T09:21:46.138Z,-4.70
2022-12-18T09:24:17.442Z,-4.70
2022-12-18T09:26:47.178Z,-4.40
2022-12-18T09:29:14.185Z,-4.30
2022-12-18T09:31:41.762Z,-4.50
2022-12-18T09:34:08.559Z,-4.50
2022-12-18T09:36:35.412Z,-4.50
2022-12-18T09:39:07.571Z,-4.50
2022-12-18T09:41:40.265Z,-4.50
2022-12-18T09:44:21.026Z,-4.50
2022-12-18T09:47:07.760Z,-4.50
2022-12-18T09:49:40.358Z,-4.70
2022-12-18T09:52:15.452Z,-4.70
2022-12-18T09:54:44.647Z,-4.50
2022-12-18T09:57:16.645Z,-4.70
2022-12-18T09:59:47.422Z,-4.70
2022-12-18T10:02:22.239Z,-4.60
2022-12-18T10:05:14.092Z,-4.50
2022-12-18T10:08:05.506Z,-4.10
2022-12-18T10:10:44.270Z,-4.20
2022-12-18T10:13:28.282Z,-4.10
2022-12-18T10:16:06.168Z,-4.00
2022-12-18T10:18:54.021Z,-4.10
2022-12-18T10:21:27.698Z,-3.90
2022-12-18T10:24:05.913Z,-3.90
2022-12-18T10:26:33.105Z,-3.70
2022-12-18T10:29:05.356Z,-4.00
2022-12-18T10:31:32.350Z,-4.10
2022-12-18T10:33:59.134Z,-4.10
2022-12-18T10:36:26.266Z,-4.30
2022-12-18T10:38:54.835Z,-4.10
2022-12-18T10:41:26.890Z,-3.90
2022-12-18T10:44:16.116Z,-3.80
2022-12-18T10:46:44.456Z,-3.80
2022-12-18T10:49:22.419Z,-3.90
2022-12-18T10:51:49.270Z,-4.00
2022-12-18T10:54:22.453Z,-3.90
2022-12-18T10:56:49.478Z,-4.00
2022-12-18T10:59:18.521Z,-4.00
2022-12-18T11:01:56.949Z,-3.90
2022-12-18T11:04:23.407Z,-3.90
2022-12-18T11:07:01.161Z,-3.70
2022-12-18T11:09:39.761Z,-3.60
2022-12-18T11:12:07.110Z,-3.60
2022-12-18T11:14:46.861Z,-3.60
2022-12-18T11:17:35.789Z,-3.50
2022-12-18T11:20:06.026Z,-3.50
2022-12-18T11:22:36.275Z,-3.50
2022-12-18T11:25:32.358Z,-3.50
2022-12-18T11:28:01.159Z,-3.70
2022-12-18T11:30:34.856Z,-3.50
2022-12-18T11:33:08.162Z,-3.40
2022-12-18T11:35:58.655Z,-3.30
2022-12-18T11:38:49.408Z,-3.30
2022-12-18T11:41:49.497Z,-3.10
2022-12-18T11:44:32.607Z,-3.30
2022-12-18T11:47:10.700Z,-3.10
2022-12-18T11:49:37.270Z,-3.10
2022-12-18T11:52:13.908Z,-3.30
2022-12-18T11:54:42.751Z,-3.10
2022-12-18T11:57:30.923Z,-3.20
2022-12-18T12:00:23.002Z,-3.30
2022-12-18T12:03:08.105Z,-3.40
2022-12-18T12:05:58.141Z,-3.30
2022-12-18T12:08:36.339Z,-3.20
2022-12-18T12:11:23.696Z,-3.20
2022-12-18T12:14:15.578Z,-3.10
2022-12-18T12:16:58.433Z,-2.80
2022-12-18T12:19:32.417Z,-2.90
2022-12-18T12:22:13.221Z,-2.90
2022-12-18T12:25:00.324Z,-2.70
2022-12-18T12:27:36.271Z,-2.80
2022-12-18T12:30:12.529Z,-2.90
2022-12-18T12:33:05.742Z,-3.10
2022-12-18T12:35:47.211Z,-3.00
2022-12-18T12:38:27.447Z,-2.90
2022-12-18T12:41:05.140Z,-2.90
2022-12-18T12:43:50.280Z,-3.00
2022-12-18T12:46:22.824Z,-3.00
2022-12-18T12:48:54.641Z,-2.90
2022-12-18T12:51:47.099Z,-2.80
2022-12-18T12:54:20.447Z,-2.70
2022-12-18T12:57:07.071Z,-2.50
2022-12-18T13:00:01.207Z,-2.80
2022-12-18T13:02:54.616Z,-3.00
2022-12-18T13:05:29.891Z,-3.00
2022-12-18T13:08:09.742Z,-3.10
2022-12-18T13:10:40.573Z,-3.20
2022-12-18T13:13:23.140Z,-3.20
2022-12-18T13:16:08.135Z,-3.30
2022-12-18T13:18:36.116Z,-3.10
2022-12-18T13:21:13.008Z,-3.10
2022-12-18T13:23:41.796Z,-2.90
2022-12-18T13:26:11.784Z,-3.10
2022-12-18T13:28:47.523Z,-3.10
2022-12-18T13:31:42.678Z,-3.10
2022-12-18T13:37:33.370Z,-3.30
2022-12-18T13:39:59.941Z,-3.40
2022-12-18T13:42:59.648Z,-3.30
2022-12-18T13:45:46.888Z,-3.40
2022-12-18T13:48:19.353Z,-3.30
2022-12-18T13:50:54.538Z,-3.40
2022-12-18T13:53:25.919Z,-3.30
2022-12-18T13:55:52.630Z,-3.10
2022-12-18T13:58:19.137Z,-3.10
2022-12-18T14:00:45.984Z,-3.20
2022-12-18T14:03:29.154Z,-3.20
2022-12-18T14:06:09.995Z,-3.30
2022-12-18T14:09:00.849Z,-3.30
2022-12-18T14:11:27.483Z,-3.20
2022-12-18T14:13:55.346Z,-3.20
2022-12-18T14:16:25.140Z,-3.30
2022-12-18T14:19:00.812Z,-3.20
2022-12-18T14:21:51.424Z,-3.20
2022-12-18T14:24:34.942Z,-3.30
2022-12-18T14:27:20.555Z,-3.20
2022-12-18T14:29:47.020Z,-3.10
2022-12-18T14:32:21.700Z,-3.30
2022-12-18T14:34:54.858Z,-3.30
2022-12-18T14:37:26.948Z,-3.30
2022-12-18T14:40:11.099Z,-3.40
2022-12-18T14:42:39.527Z,-3.50
2022-12-18T14:45:42.652Z,-3.60
2022-12-18T14:48:13.007Z,-3.60
2022-12-18T14:50:41.409Z,-3.60
2022-12-18T14:53:22.199Z,-3.70
2022-12-18T14:55:49.699Z,-3.60
2022-12-18T14:58:18.465Z,-3.50
2022-12-18T15:00:48.220Z,-3.50
2022-12-18T15:03:21.002Z,-3.50
2022-12-18T15:05:48.755Z,-3.50
2022-12-18T15:08:30.065Z,-3.50
2022-12-18T15:10:57.975Z,-3.30
2022-12-18T15:13:25.707Z,-3.40
2022-12-18T15:15:53.885Z,-3.50
2022-12-18T15:18:24.600Z,-3.40
2022-12-18T15:20:57.779Z,-3.40
2022-12-18T15:23:28.615Z,-3.40
2022-12-18T15:26:15.436Z,-3.30
2022-12-18T15:28:53.363Z,-3.40
2022-12-18T15:31:31.942Z,-3.40
2022-12-18T15:33:59.980Z,-3.50
2022-12-18T15:36:31.769Z,-3.50
2022-12-18T15:39:04.587Z,-3.60
2022-12-18T15:41:35.260Z,-3.60
2022-12-18T15:44:03.313Z,-3.80
2022-12-18T15:46:31.784Z,-3.80
2022-12-18T15:49:02.349Z,-3.90
2022-12-18T15:51:34.998Z,-3.80
2022-12-18T15:54:07.339Z,-3.70
2022-12-18T15:56:52.921Z,-3.70
2022-12-18T15:59:21.328Z,-3.90
2022-12-18T16:01:50.703Z,-3.90
2022-12-18T16:04:21.360Z,-3.90
2022-12-18T16:07:13.947Z,-3.80
2022-12-18T16:09:34.904Z,-3.90
2022-12-18T16:12:01.594Z,-3.90
2022-12-18T16:14:30.822Z,-3.90
2022-12-18T16:17:03.682Z,-3.90
2022-12-18T16:19:30.813Z,-3.80
2022-12-18T16:21:59.273Z,-3.90
2022-12-18T16:24:30.821Z,-3.80
2022-12-18T16:27:01.240Z,-3.90
2022-12-18T16:29:29.072Z,-3.90
2022-12-18T16:31:58.221Z,-3.80
2022-12-18T16:34:29.869Z,-3.90
2022-12-18T16:37:05.604Z,-3.80
2022-12-18T16:39:36.777Z,-3.90
2022-12-18T16:42:13.564Z,-3.90
2022-12-18T16:44:40.090Z,-3.80
2022-12-18T16:47:06.631Z,-3.80
2022-12-18T16:49:35.673Z,-3.80
2022-12-18T16:52:02.104Z,-3.70
2022-12-18T16:54:30.601Z,-3.90
2022-12-18T16:56:57.761Z,-3.90
2022-12-18T16:59:24.304Z,-3.90
2022-12-18T17:01:51.082Z,-4.00
2022-12-18T17:04:17.702Z,-4.00
2022-12-18T17:06:45.923Z,-4.10
2022-12-18T17:09:15.466Z,-4.10
2022-12-18T17:11:42.185Z,-4.20
2022-12-18T17:14:11.318Z,-4.20
2022-12-18T17:16:40.463Z,-4.20
2022-12-18T17:19:09.680Z,-4.10
2022-12-18T17:21:40.560Z,-4.10
2022-12-18T17:24:08.359Z,-4.10
2022-12-18T17:26:35.037Z,-4.10
2022-12-18T17:29:01.610Z,-4.10
2022-12-18T17:31:30.011Z,-4.10
2022-12-18T17:33:58.115Z,-4.20
2022-12-18T17:36:28.570Z,-4.20
2022-12-18T17:39:01.508Z,-4.10
2022-12-18T17:41:29.168Z,-4.20
2022-12-18T17:44:01.350Z,-4.20
2022-12-18T17:46:30.183Z,-4.20
2022-12-18T17:48:58.326Z,-4.20
2022-12-18T17:51:26.524Z,-4.20
2022-12-18T17:53:53.399Z,-4.20
2022-12-18T17:56:23.500Z,-4.20
2022-12-18T17:58:51.385Z,-4.20
2022-12-18T18:01:21.529Z,-4.30
2022-12-18T18:03:49.361Z,-4.30
2022-12-18T18:06:20.329Z,-4.40
2022-12-18T18:08:46.823Z,-4.30
2022-12-18T18:11:34.732Z,-4.40
2022-12-18T18:14:02.427Z,-4.40
2022-12-18T18:16:34.500Z,-4.40
2022-12-18T18:19:03.082Z,-4.40
2022-12-18T18:21:32.962Z,-4.40
2022-12-18T18:24:03.695Z,-4.40
2022-12-18T18:26:35.131Z,-4.50
2022-12-18T18:29:04.811Z,-4.40
2022-12-18T18:31:35.259Z,-4.40
2022-12-18T18:34:07.471Z,-4.40
2022-12-18T18:36:34.774Z,-4.40
2022-12-18T18:39:02.276Z,-4.40
2022-12-18T18:41:30.188Z,-4.40
2022-12-18T18:43:58.084Z,-4.40
2022-12-18T18:46:27.083Z,-4.50
2022-12-18T18:48:54.997Z,-4.50
2022-12-18T18:51:23.774Z,-4.50
2022-12-18T18:53:52.557Z,-4.50
2022-12-18T18:59:08.623Z,-4.50
2022-12-18T19:01:35.289Z,-4.50
2022-12-18T19:04:01.904Z,-4.60
2022-12-18T19:06:29.242Z,-4.60
2022-12-18T19:08:57.075Z,-4.60
2022-12-18T19:11:43.988Z,-4.50
2022-12-18T19:14:13.115Z,-4.60
2022-12-18T19:16:41.124Z,-4.60
2022-12-18T19:19:08.359Z,-4.60
2022-12-18T19:21:35.532Z,-4.50
2022-12-18T19:24:02.656Z,-4.50
2022-12-18T19:26:29.728Z,-4.50
2022-12-18T19:29:11.599Z,-4.50
2022-12-18T19:31:41.667Z,-4.40
2022-12-18T19:34:08.309Z,-4.50
2022-12-18T19:36:36.901Z,-4.50
2022-12-18T19:39:16.765Z,-4.40
2022-12-18T19:41:49.110Z,-4.50
2022-12-18T19:44:16.642Z,-4.50
2022-12-18T19:46:46.570Z,-4.40
2022-12-18T19:49:17.596Z,-4.40
2022-12-18T19:51:45.492Z,-4.50
2022-12-18T19:54:17.508Z,-4.40
2022-12-18T19:56:45.193Z,-4.40
2022-12-18T19:59:12.569Z,-4.50
2022-12-18T20:01:39.161Z,-4.50
2022-12-18T20:04:06.175Z,-4.40
2022-12-18T20:06:53.620Z,-4.40
2022-12-18T20:09:23.477Z,-4.50
2022-12-18T20:11:50.448Z,-4.50
2022-12-18T20:14:22.667Z,-4.50
2022-12-18T20:16:53.083Z,-4.50
2022-12-18T20:19:20.573Z,-4.50
2022-12-18T20:21:47.411Z,-4.50
2022-12-18T20:24:17.283Z,-4.40
2022-12-18T20:26:46.854Z,-4.40
2022-12-18T20:29:13.806Z,-4.40
2022-12-18T20:31:42.314Z,-4.40
2022-12-18T20:34:09.315Z,-4.40
2022-12-18T20:36:37.639Z,-4.40
2022-12-18T20:39:06.443Z,-4.40
2022-12-18T20:41:38.350Z,-4.30
2022-12-18T20:44:14.032Z,-4.40
2022-12-18T20:46:55.407Z,-4.30
2022-12-18T20:49:23.013Z,-4.30
2022-12-18T20:51:54.827Z,-4.30
2022-12-18T20:54:24.602Z,-4.30
2022-12-18T20:57:01.510Z,-4.30
2022-12-18T20:59:28.134Z,-4.30
2022-12-18T21:01:58.559Z,-4.30
2022-12-18T21:04:26.045Z,-4.30
2022-12-18T21:07:00.805Z,-4.30
2022-12-18T21:09:37.942Z,-4.30
2022-12-18T21:12:25.887Z,-4.30
2022-12-18T21:14:52.725Z,-4.30
2022-12-18T21:17:19.304Z,-4.30
2022-12-18T21:19:46.212Z,-4.30
2022-12-18T21:22:13.197Z,-4.30
2022-12-18T21:24:39.863Z,-4.30
2022-12-18T21:27:06.565Z,-4.30
2022-12-18T21:29:34.998Z,-4.30
2022-12-18T21:32:02.243Z,-4.20
2022-12-18T21:34:31.203Z,-4.30
2022-12-18T21:36:59.953Z,-4.30
2022-12-18T21:39:28.728Z,-4.30
2022-12-18T21:42:16.971Z,-4.30
2022-12-18T21:44:44.740Z,-4.30
2022-12-18T21:47:22.163Z,-4.30
2022-12-18T21:49:56.463Z,-4.30
2022-12-18T21:52:32.241Z,-4.30
2022-12-18T21:55:07.835Z,-4.30
2022-12-18T21:57:35.746Z,-4.30
2022-12-18T22:00:03.360Z,-4.30
2022-12-18T22:02:32.371Z,-4.30
2022-12-18T22:04:59.176Z,-4.30
2022-12-18T22:07:28.955Z,-4.30
2022-12-18T22:09:55.466Z,-4.30
2022-12-18T22:12:35.838Z,-4.30
2022-12-18T22:15:11.597Z,-4.20
2022-12-18T22:17:39.945Z,-4.20
2022-12-18T22:20:10.579Z,-4.20
2022-12-18T22:22:37.419Z,-4.10
2022-12-18T22:25:04.299Z,-4.20
2022-12-18T22:27:30.735Z,-4.10
2022-12-18T22:30:06.352Z,-4.10
2022-12-18T22:32:33.924Z,-4.00
2022-12-18T22:35:07.914Z,-4.00
2022-12-18T22:37:35.851Z,-4.00
2022-12-18T22:40:05.154Z,-3.90
2022-12-18T22:42:32.708Z,-4.00
2022-12-18T22:45:00.570Z,-3.90
2022-12-18T22:47:30.960Z,-3.90
2022-12-18T22:49:59.097Z,-3.90
2022-12-18T22:52:25.891Z,-3.90
2022-12-18T22:54:54.496Z,-3.90
2022-12-18T22:57:22.915Z,-3.90
2022-12-18T22:59:50.160Z,-3.80
2022-12-18T23:02:21.184Z,-3.80
2022-12-18T23:04:48.062Z,-3.80
2022-12-18T23:07:15.280Z,-3.80
2022-12-18T23:09:41.742Z,-3.80
2022-12-18T23:12:14.214Z,-3.80
2022-12-18T23:14:41.094Z,-3.80
2022-12-18T23:17:07.881Z,-3.90
2022-12-18T23:19:34.350Z,-3.90
2022-12-18T23:22:05.040Z,-3.90
2022-12-18T23:24:33.837Z,-3.90
2022-12-18T23:27:20.085Z,-3.90
2022-12-18T23:29:47.687Z,-3.90
2022-12-18T23:32:16.765Z,-3.80
2022-12-18T23:34:43.988Z,-3.90
2022-12-18T23:37:10.654Z,-3.80
2022-12-18T23:39:37.406Z,-3.80
2022-12-18T23:42:04.199Z,-3.80
2022-12-18T23:44:32.106Z,-3.80
2022-12-18T23:46:58.861Z,-3.80
2022-12-18T23:49:25.412Z,-3.80
2022-12-18T23:51:54.113Z,-3.80
2022-12-18T23:54:31.406Z,-3.80
2022-12-18T23:57:00.092Z,-3.80
2022-12-18T23:59:27.325Z,-3.80
